createdAt,value
2023-06-10T06:04:58.876Z,13.16
2023-06-10T06:09:00.610Z,13.09
2023-06-10T06:13:02.719Z,12.92
2023-06-10T06:17:04.469Z,13.41
2023-06-10T06:21:06.065Z,13.44
2023-06-10T06:25:08.178Z,13.90
2023-06-10T06:29:09.979Z,13.80
2023-06-10T06:33:11.551Z,13.87
2023-06-10T06:37:13.136Z,14.08
2023-06-10T06:41:17.447Z,14.51
2023-06-10T06:45:19.278Z,15.25
2023-06-10T06:49:20.717Z,14.16
2023-06-10T06:53:22.341Z,14.74
2023-06-10T06:57:24.353Z,14.56
2023-06-10T07:01:25.878Z,14.79
2023-06-10T07:05:28.417Z,15.02
2023-06-10T07:09:30.230Z,15.21
2023-06-10T07:13:31.711Z,15.40
2023-06-10T07:17:33.317Z,15.63
2023-06-10T07:21:35.023Z,15.53
2023-06-10T07:25:36.661Z,15.38
2023-06-10T07:29:38.185Z,15.86
2023-06-10T07:33:44.532Z,15.85
2023-06-10T07:37:46.623Z,16.11
2023-06-10T07:41:50.115Z,16.65
2023-06-10T07:45:51.658Z,16.77
2023-06-10T07:49:53.134Z,16.05
2023-06-10T07:53:54.701Z,16.39
2023-06-10T07:57:56.277Z,15.73
2023-06-10T08:01:57.798Z,15.65
2023-06-10T08:05:59.328Z,15.94
2023-06-10T08:10:01.664Z,16.87
2023-06-10T08:14:03.306Z,17.04
2023-06-10T08:18:04.972Z,17.35
2023-06-10T08:22:06.572Z,17.76
2023-06-10T08:26:08.079Z,17.33
2023-06-10T08:30:11.679Z,17.85
2023-06-10T08:34:13.279Z,18.04
2023-06-10T08:38:15.062Z,17.99
2023-06-10T08:42:29.586Z,17.97
2023-06-10T08:46:33.678Z,17.77
2023-06-10T08:50:37.741Z,16.85
2023-06-10T08:54:39.891Z,17.08
2023-06-10T08:58:42.883Z,18.25
2023-06-10T09:02:45.399Z,17.92
2023-06-10T09:06:49.967Z,18.04
2023-06-10T09:10:51.480Z,18.32
2023-06-10T09:14:52.980Z,17.93
2023-06-10T09:18:56.301Z,18.32
2023-06-10T09:22:58.160Z,18.62
2023-06-10T09:27:07.565Z,19.00
2023-06-10T09:31:10.393Z,18.12
2023-06-10T09:35:12.266Z,18.80
2023-06-10T09:39:18.326Z,19.23
2023-06-10T09:43:20.142Z,19.51
2023-06-10T09:47:23.516Z,19.75
2023-06-10T09:51:25.235Z,19.33
2023-06-10T09:55:27.046Z,18.69
2023-06-10T09:59:33.102Z,18.64
2023-06-10T10:03:34.794Z,19.33
2023-06-10T10:07:36.293Z,19.75
2023-06-10T10:11:38.147Z,19.63
2023-06-10T10:15:42.554Z,19.92
2023-06-10T10:19:49.306Z,19.87
2023-06-10T10:24:17.222Z,19.00
2023-06-10T10:28:22.506Z,19.10
2023-06-10T10:32:37.619Z,19.48
2023-06-10T10:53:48.849Z,20.48
2023-06-10T10:58:35.389Z,20.30
2023-06-10T11:03:27.319Z,20.61
2023-06-10T11:08:22.894Z,20.75
2023-06-10T11:18:19.622Z,20.29
2023-06-10T11:23:08.243Z,20.57
2023-06-10T11:27:48.144Z,20.07
2023-06-10T11:31:52.930Z,19.54
2023-06-10T11:36:05.554Z,20.28
2023-06-10T11:40:23.829Z,20.19
2023-06-10T11:44:29.063Z,20.30
2023-06-10T11:48:37.625Z,20.56
2023-06-10T11:52:42.582Z,20.57
2023-06-10T11:56:47.425Z,21.17
2023-06-10T12:01:03.866Z,21.12
2023-06-10T12:05:20.430Z,21.25
2023-06-10T12:09:30.367Z,21.29
2023-06-10T12:13:31.854Z,20.45
2023-06-10T12:17:33.652Z,21.47
2023-06-10T12:21:37.858Z,21.08
2023-06-10T12:25:40.819Z,21.38
2023-06-10T12:29:54.667Z,20.92
2023-06-10T12:34:11.222Z,20.88
2023-06-10T12:38:13.637Z,20.11
2023-06-10T12:42:15.403Z,20.08
2023-06-10T12:46:17.945Z,20.48
2023-06-10T12:50:19.988Z,20.72
2023-06-10T12:54:21.798Z,20.53
2023-06-10T12:58:24.269Z,20.37
2023-06-10T13:02:25.903Z,20.50
2023-06-10T13:06:27.554Z,20.37
2023-06-10T13:10:29.061Z,20.11
2023-06-10T13:14:30.590Z,20.41
2023-06-10T13:18:38.099Z,20.37
2023-06-10T13:22:39.596Z,20.61
2023-06-10T13:26:41.225Z,20.59
2023-06-10T13:30:42.800Z,21.37
2023-06-10T13:34:44.284Z,20.50
2023-06-10T13:38:46.399Z,20.32
2023-06-10T13:42:51.621Z,20.96
2023-06-10T13:46:53.218Z,20.42
2023-06-10T13:50:54.797Z,20.93
2023-06-10T13:54:56.975Z,20.87
2023-06-10T13:58:58.555Z,21.20
2023-06-10T14:03:00.116Z,20.86
2023-06-10T14:07:01.835Z,20.80
2023-06-10T14:11:03.461Z,20.64
2023-06-10T14:15:05.454Z,20.28
2023-06-10T14:19:06.950Z,20.96
2023-06-10T14:23:08.460Z,21.30
2023-06-10T14:27:09.943Z,20.78
2023-06-10T14:31:11.942Z,20.53
2023-06-10T14:35:13.640Z,20.49
2023-06-10T14:39:15.149Z,20.63
2023-06-10T14:43:16.657Z,20.34
2023-06-10T14:47:18.159Z,21.25
2023-06-10T14:51:21.217Z,20.67
2023-06-10T14:55:25.758Z,20.79
2023-06-10T14:59:27.253Z,20.34
2023-06-10T15:03:28.740Z,20.70
2023-06-10T15:07:30.312Z,20.20
2023-06-10T15:11:31.858Z,20.63
2023-06-10T15:15:33.533Z,20.24
2023-06-10T15:19:35.018Z,19.96
2023-06-10T15:23:36.498Z,20.11
2023-06-10T15:27:38.012Z,19.27
2023-06-10T15:31:39.596Z,19.09
2023-06-10T15:35:41.519Z,19.38
2023-06-10T15:39:43.024Z,19.33
2023-06-10T15:43:44.507Z,18.80
2023-06-10T15:47:46.002Z,19.26
2023-06-10T15:51:50.854Z,18.96
2023-06-10T15:55:54.555Z,19.55
2023-06-10T15:59:56.218Z,19.34
2023-06-10T16:03:57.747Z,19.18
2023-06-10T16:08:01.906Z,19.27
2023-06-10T16:12:06.868Z,18.82
2023-06-10T16:16:08.817Z,18.65
2023-06-10T16:20:11.319Z,18.42
2023-06-10T16:24:12.970Z,18.80
2023-06-10T16:28:14.565Z,18.91
2023-06-10T16:32:16.082Z,19.33
2023-06-10T16:36:17.600Z,19.13
2023-06-10T16:40:19.156Z,18.37
2023-06-10T16:44:20.675Z,18.70
2023-06-10T16:48:22.146Z,19.23
2023-06-10T16:52:23.624Z,18.54
2023-06-10T16:56:25.813Z,18.37
2023-06-10T17:00:27.287Z,18.48
2023-06-10T17:04:28.751Z,18.04
2023-06-10T17:08:30.244Z,18.27
2023-06-10T17:12:31.770Z,18.61
2023-06-10T17:16:33.366Z,18.27
2023-06-10T17:20:35.000Z,17.37
2023-06-10T17:24:36.488Z,16.75
2023-06-10T17:28:38.007Z,16.43
2023-06-10T17:32:41.152Z,16.24
2023-06-10T17:36:42.796Z,15.85
2023-06-10T17:40:44.306Z,15.58
2023-06-10T17:44:45.833Z,15.65
2023-06-10T17:48:48.513Z,15.56
2023-06-10T17:52:50.049Z,15.34
2023-06-10T17:56:51.804Z,14.89
2023-06-10T18:00:54.062Z,14.59
2023-06-10T18:04:55.628Z,14.21
2023-06-10T18:08:57.128Z,13.99
2023-06-10T18:12:58.752Z,13.77
2023-06-10T18:17:00.414Z,13.73
2023-06-10T18:21:03.187Z,13.66
2023-06-10T18:25:05.960Z,13.60
2023-06-10T18:29:07.731Z,13.52
